Flight Track Log - Related Links

Times and Time Zones

All times are in EST time to prevent confusion due to time zone crossing. See the QXE2341 flight status page for this flight to view local times or setup timezone preferences in your user account.

Time Position Orientation Groundspeed Altitude Reporting Facility
EST Latitude Longitude Course Direction KTS MPH feet Rate Location/Type
Mon 09:10:00 AM 46.9739 -114.6718 294° West  Level Estimated
Mon 09:11:00 AM 46.9850 -114.7882 288° West  Level Estimated
Mon 09:12:00 AM 47.0396 -114.8743 313° West  Level FlightAware Approximate
Mon 09:13:00 AM 47.0941 -114.9606 313° West  Level FlightAware Approximate
Mon 09:14:00 AM 47.1035 -115.0776 292° West  Level Estimated
Mon 09:15:00 AM 47.1128 -115.1946 270° West  Level Estimated
Mon 09:16:00 AM 47.1220 -115.3117 275° West  Level Estimated
Mon 09:17:00 AM 47.1442 -115.4250 286° West  Level FlightAware Approximate
Mon 09:18:00 AM 47.1664 -115.5383 286° West  Level FlightAware Approximate
Mon 09:19:00 AM 47.1746 -115.6530 276° West  Level Estimated
Mon 09:20:00 AM 47.1826 -115.7678 276° West  Level Estimated
Mon 09:21:00 AM 47.1906 -115.8825 276° West  Level Estimated
Mon 09:22:00 AM 47.1984 -115.9973 276° West  Level Estimated
Mon 09:23:00 AM 47.2061 -116.1119 276° West  Level Estimated
Mon 09:24:00 AM 47.2136 -116.2265 276° West  Level Estimated
Mon 09:25:00 AM 47.2211 -116.3411 276° West  Level Estimated
Mon 09:26:00 AM 47.2284 -116.4558 275° West  Level Estimated
Mon 09:27:00 AM 47.2357 -116.5705 275° West  Level Estimated
Mon 09:28:00 AM 47.2428 -116.6852 275° West  Level Estimated
Mon 09:29:00 AM 47.2498 -116.8000 275° West  Level Estimated
Mon 09:30:00 AM 47.2567 -116.9148 275° West  Level Estimated
Mon 09:31:00 AM 47.2634 -117.0296 275° West  Level Estimated
Mon 09:32:00 AM 47.2701 -117.1445 275° West  Level Estimated
Mon 09:33:00 AM 47.2766 -117.2593 275° West  Level Estimated
Mon 09:34:00 AM 47.2831 -117.3743 275° West  Level Estimated
Mon 09:35:00 AM 47.2894 -117.4892 275° West  Level Estimated
Mon 09:36:00 AM 47.2956 -117.6041 275° West  Level Estimated
Mon 09:37:00 AM 47.3017 -117.7191 275° West  Level Estimated
Mon 09:38:00 AM 47.3076 -117.8341 274° West  Level Estimated
Mon 09:39:00 AM 47.3135 -117.9492 274° West  Level Estimated
Mon 09:40:00 AM 47.3192 -118.0642 274° West  Level Estimated
Mon 09:41:00 AM 47.3248 -118.1793 274° West  Level Estimated
Mon 09:42:00 AM 47.3303 -118.2944 274° West  Level Estimated
Mon 09:43:00 AM 47.3357 -118.4096 274° West  Level Estimated
Mon 09:44:00 AM 47.3410 -118.5247 274° West  Level Estimated
Mon 09:45:00 AM 47.3462 -118.6399 274° West  Level Estimated
Mon 09:46:00 AM 47.3512 -118.7551 274° West  Level Estimated
Mon 09:47:00 AM 47.3562 -118.8704 274° West  Level Estimated
Mon 09:48:00 AM 47.3610 -118.9856 274° West  Level Estimated
Mon 09:49:00 AM 47.3657 -119.1008 273° West  Level Estimated
Mon 09:50:00 AM 47.3702 -119.2160 273° West  Level Estimated
Mon 09:51:00 AM 47.3747 -119.3312 273° West  Level Estimated
Mon 09:52:00 AM 47.3790 -119.4455 273° West  Level Estimated
Mon 09:53:00 AM 47.3832 -119.5599 273° West  Level Estimated
Mon 09:54:00 AM 47.3873 -119.6742 273° West  Level Estimated
Mon 09:55:00 AM 47.3913 -119.7906 273° West  Level Estimated
Mon 09:56:00 AM 47.3953 -119.9069 273° West  Level Estimated
Mon 09:57:00 AM 47.3991 -120.0233 273° West  Level Estimated
Mon 09:58:00 AM 47.4028 -120.1397 273° West  Level Estimated
Mon 09:59:00 AM 47.4063 -120.2561 273° West  Level Estimated
Mon 10:00:00 AM 47.4098 -120.3726 273° West  Level Estimated
Mon 10:01:00 AM 47.4131 -120.4890 272° West  Level Estimated
Mon 10:02:00 AM 47.4163 -120.6055 272° West  Level Estimated
Mon 10:03:00 AM 47.4194 -120.7220 272° West  Level Estimated
Mon 10:04:00 AM 47.4224 -120.8385 272° West  Level Estimated
Mon 10:05:00 AM 47.4253 -120.9550 272° West  Level Estimated
Mon 10:06:00 AM 47.4280 -121.0715 272° West  Level Estimated
Mon 10:07:00 AM 47.4306 -121.1880 272° West  Level Estimated
Mon 10:08:00 AM 47.4332 -121.3046 272° West  Level Estimated
Mon 10:09:00 AM 47.4355 -121.4183 272° West  Level Estimated
Mon 10:10:00 AM 47.4377 -121.5321 272° West  Level Estimated
Mon 10:11:00 AM 47.4398 -121.6459 272° West  Level Estimated
Mon 10:12:00 AM 47.4418 -121.7596 272° West  Level Estimated
Mon 10:13:00 AM 47.4437 -121.8734 271° West  Level Estimated
Mon 10:14:00 AM 47.4455 -121.9872 271° West  Level Estimated
Mon 10:15:00 AM 47.4471 -122.1010 271° West  Level Estimated
Mon 10:16:00 AM 47.4487 -122.2148 271° West  Level Estimated
Mon 10:17:00 AM 47.4499 -122.3118 271° West  Level Estimated
Mon 10:18:00 AM 47.4499 -122.3118 126° Southeast  Level Estimated
Mon 10:19:00 AM 47.4499 -122.3118 126° Southeast  Level Estimated
Mon 10:20:00 AM 47.4499 -122.3118 126° Southeast  Level Estimated
Mon 10:21:00 AM 47.4499 -122.3118 222° Southwest  Level Estimated
Mon 10:22:00 AM 47.4499 -122.3118 222° Southwest  Level Estimated
Mon 10:23:00 AM 47.4499 -122.3118 222° Southwest  Level Estimated
Mon 10:24:00 AM 47.4499 -122.3118 180° South  Level Estimated
Mon 10:25:00 AM 47.4499 -122.3118 180° South  Level Estimated
Mon 10:26:00 AM 47.4499 -122.3118 180° South  Level Estimated
Mon 10:27:00 AM 47.4499 -122.3118 180° South  Level Estimated
Mon 10:28:00 AM 47.4499 -122.3118 180° South  Level Estimated
Mon 10:29:00 AM 47.4499 -122.3118 180° South  Level Estimated
Mon 10:30:00 AM 47.4499 -122.3118 180° South  Level Estimated

Login

Don't have an account? Register now (free) for customized features, flight alerts, and more!